Time;durP1;ratioP1;P1;durP2;ratioP2;P2;SDS_P1;SDS_P2;PMS_P1;PMS_P2;Temp;Humidity;BMP_temperature;BMP_pressure;BME280_temperature;BME280_humidity;BME280_pressure;Samples;Min_cycle;Max_cycle;Signal;HPM_P1;HPM_P2
2022/02/02 00:00:13;;;;;;;2.53;1.50;;;;;;;4.08;97.55;96318.56;2071080;28;20209;-61
2022/02/02 00:01:18;;;;;;;5.43;1.77;;;;;;;4.02;98.05;96319.69;2071705;28;20213;-61
2022/02/02 00:02:32;;;;;;;4.25;1.60;;;;;;;3.91;98.49;96306.38;2072099;28;20202;-61
2022/02/02 00:03:34;;;;;;;10.98;1.80;;;;;;;4.01;97.97;96304.19;2071802;28;20228;-61
2022/02/02 00:04:42;;;;;;;4.65;1.95;;;;;;;4.01;98.12;96314.56;2071514;28;20225;-61
2022/02/02 00:07:05;;;;;;;8.52;2.30;;;;;;;3.86;98.65;96282.44;2071921;28;20202;-61
2022/02/02 00:08:12;;;;;;;8.98;3.35;;;;;;;4.11;96.80;96290.72;2071643;28;20233;-61
2022/02/02 00:09:17;;;;;;;7.95;2.72;;;;;;;4.15;96.79;96289.66;2071433;28;20205;-62
2022/02/02 00:16:02;;;;;;;8.07;2.40;;;;;;;4.18;97.72;96300.81;2071948;28;20209;-61
2022/02/02 00:17:18;;;;;;;5.93;2.38;;;;;;;4.21;97.68;96296.28;2071820;28;20193;-61
2022/02/02 00:20:55;;;;;;;5.20;1.85;;;;;;;4.29;97.02;96314.06;2073497;28;20569;-61
2022/02/02 00:22:01;;;;;;;6.97;2.55;;;;;;;4.27;96.63;96306.41;2073559;28;20216;-61
2022/02/02 00:23:07;;;;;;;2.88;1.85;;;;;;;4.29;96.54;96306.28;2072752;28;20212;-61
2022/02/02 00:24:33;;;;;;;2.25;1.52;;;;;;;4.25;96.67;96313.38;2073117;28;20190;-62
2022/02/02 00:25:46;;;;;;;3.15;1.80;;;;;;;4.25;97.07;96325.50;2071643;28;20285;-61
2022/02/02 00:26:51;;;;;;;8.85;2.55;;;;;;;4.00;96.38;96269.69;2073340;28;20221;-61
2022/02/02 00:27:57;;;;;;;5.13;2.10;;;;;;;4.30;96.82;96320.97;2071926;28;20205;-61
2022/02/02 00:29:06;;;;;;;8.25;2.42;;;;;;;4.14;97.12;96298.34;2072461;28;20197;-61
2022/02/02 00:30:11;;;;;;;6.68;2.42;;;;;;;4.34;97.05;96327.66;2073071;28;20236;-61
2022/02/02 00:31:20;;;;;;;7.55;2.28;;;;;;;4.35;95.63;96296.50;2073420;28;20582;-61
2022/02/02 00:32:45;;;;;;;10.05;2.25;;;;;;;4.47;96.05;96320.13;2073482;28;20209;-61
2022/02/02 00:34:00;;;;;;;6.88;2.63;;;;;;;4.49;95.76;96331.28;2072182;28;20209;-61
2022/02/02 00:35:03;;;;;;;10.27;3.05;;;;;;;4.43;96.54;96337.59;2072734;28;20217;-61
2022/02/02 00:36:10;;;;;;;5.55;2.72;;;;;;;4.40;96.49;96324.78;2073461;28;20190;-61
2022/02/02 00:37:13;;;;;;;10.45;3.08;;;;;;;4.38;96.96;96334.38;2073505;28;20205;-61
2022/02/02 00:38:15;;;;;;;5.55;2.85;;;;;;;4.42;96.20;96340.25;2073197;28;20205;-61
2022/02/02 00:39:17;;;;;;;9.18;2.58;;;;;;;4.46;94.74;96334.84;2072917;28;20274;-61
2022/02/02 00:40:19;;;;;;;10.00;3.33;;;;;;;4.30;95.42;96336.50;2071658;28;20206;-61
2022/02/02 00:41:20;;;;;;;9.57;2.85;;;;;;;4.43;94.50;96316.00;2073543;28;20765;-61
2022/02/02 00:42:28;;;;;;;5.28;2.30;;;;;;;4.42;94.53;96319.53;2073213;28;20272;-61
2022/02/02 00:43:30;;;;;;;6.38;2.30;;;;;;;4.38;94.64;96320.59;2071215;28;20643;-61
2022/02/02 00:44:54;;;;;;;6.47;2.55;;;;;;;4.28;94.77;96304.63;2073051;28;20244;-61
2022/02/02 00:45:57;;;;;;;5.53;2.67;;;;;;;4.32;93.63;96306.16;2072581;28;20209;-61
2022/02/02 00:46:59;;;;;;;8.20;2.10;;;;;;;4.34;93.19;96307.75;2073026;28;20263;-61
2022/02/02 00:48:01;;;;;;;5.25;1.80;;;;;;;4.31;92.97;96291.50;2073359;28;20546;-61
2022/02/02 00:49:05;;;;;;;10.57;2.35;;;;;;;4.22;93.91;96297.16;2072966;28;20201;-61
2022/02/02 00:50:07;;;;;;;6.53;1.90;;;;;;;4.19;93.14;96289.50;2073074;28;20243;-61
2022/02/02 00:51:09;;;;;;;14.93;2.63;;;;;;;4.16;93.30;96304.31;2071848;28;20205;-61
2022/02/02 00:52:10;;;;;;;5.47;1.80;;;;;;;4.18;93.49;96296.47;2073287;28;20206;-61
2022/02/02 00:53:14;;;;;;;3.45;1.55;;;;;;;4.22;92.73;96294.56;2073385;28;20193;-61
2022/02/02 00:54:21;;;;;;;5.50;1.35;;;;;;;4.19;93.04;96298.13;2072890;28;20201;-61
2022/02/02 00:55:23;;;;;;;6.07;1.50;;;;;;;4.20;92.73;96306.75;2071420;28;20205;-61
2022/02/02 00:56:25;;;;;;;3.63;1.50;;;;;;;4.16;93.35;96306.91;2073331;28;20207;-61
2022/02/02 00:57:28;;;;;;;2.72;1.45;;;;;;;4.16;92.90;96304.31;2073319;28;20642;-61
2022/02/02 00:58:29;;;;;;;5.10;1.23;;;;;;;4.27;92.62;96306.41;2072725;28;20629;-61
2022/02/02 00:59:31;;;;;;;4.60;1.30;;;;;;;4.29;92.92;96324.44;2072936;28;20217;-61
2022/02/02 01:00:33;;;;;;;5.32;1.52;;;;;;;4.25;92.81;96312.53;2073185;28;20574;-61
2022/02/02 01:01:34;;;;;;;4.90;1.40;;;;;;;4.23;93.34;96310.03;2073391;28;20198;-61
2022/02/02 01:02:36;;;;;;;5.78;1.80;;;;;;;4.28;93.25;96315.00;2073196;28;20232;-61
2022/02/02 01:03:37;;;;;;;4.03;2.17;;;;;;;4.27;93.46;96310.72;2073091;28;20202;-61
2022/02/02 01:04:39;;;;;;;5.18;1.80;;;;;;;4.28;93.37;96315.00;2072438;28;20232;-61
2022/02/02 01:05:40;;;;;;;6.70;1.65;;;;;;;4.24;93.69;96311.72;2072944;28;20198;-61
2022/02/02 01:06:51;;;;;;;4.90;1.50;;;;;;;4.26;93.57;96319.44;2072911;28;20225;-61
2022/02/02 01:08:41;;;;;;;5.88;1.50;;;;;;;4.19;93.49;96311.09;2072128;28;20260;-61
2022/02/02 01:09:30;;;;;;;5.07;1.88;;;;;;;4.06;93.83;96297.06;2071875;28;20214;-61
2022/02/02 01:10:53;;;;;;;5.97;2.10;;;;;;;4.20;93.55;96330.94;2071771;28;20209;-61
2022/02/02 01:12:21;;;;;;;18.10;2.75;;;;;;;4.22;93.75;96336.88;2072768;28;20644;-61
2022/02/02 01:19:14;;;;;;;6.65;1.60;;;;;;;4.19;94.21;96343.94;2072656;28;20228;-60
2022/02/02 01:28:04;;;;;;;6.75;2.20;;;;;;;4.29;95.38;96363.34;2072602;28;20200;-61
2022/02/02 01:29:05;;;;;;;8.98;2.25;;;;;;;4.29;95.41;96363.34;2072484;28;20198;-61
2022/02/02 01:30:12;;;;;;;6.15;2.15;;;;;;;4.30;95.74;96362.44;2071665;28;20222;-60
2022/02/02 01:31:15;;;;;;;5.20;1.85;;;;;;;4.24;96.01;96360.97;2071415;28;20202;-61
2022/02/02 01:32:16;;;;;;;7.70;1.90;;;;;;;4.22;95.99;96351.59;2072675;28;20220;-60
2022/02/02 01:33:19;;;;;;;2.92;1.80;;;;;;;4.23;96.38;96350.66;2072896;28;20578;-61
2022/02/02 01:34:20;;;;;;;8.73;2.70;;;;;;;4.26;96.25;96350.53;2072601;28;20213;-60
2022/02/02 01:35:22;;;;;;;5.07;2.30;;;;;;;4.18;96.11;96353.50;2072132;28;20217;-61
2022/02/02 01:36:23;;;;;;;5.50;2.55;;;;;;;4.29;96.10;96364.19;2072985;28;20209;-61
2022/02/02 01:37:26;;;;;;;5.93;2.13;;;;;;;4.31;95.65;96359.78;2072728;28;20197;-61
2022/02/02 01:38:32;;;;;;;7.45;2.80;;;;;;;4.35;94.84;96357.84;2072343;28;20228;-60
2022/02/02 01:39:34;;;;;;;9.85;2.70;;;;;;;4.38;94.61;96343.94;2072595;28;20286;-61
2022/02/02 01:40:42;;;;;;;13.70;3.20;;;;;;;4.39;93.67;96337.81;2072933;28;20681;-61
2022/02/02 01:41:45;;;;;;;12.18;2.63;;;;;;;4.56;92.71;96354.22;2071887;28;20201;-61
2022/02/02 01:42:53;;;;;;;8.07;2.95;;;;;;;4.51;93.12;96356.22;2073110;28;20206;-61
2022/02/02 01:44:06;;;;;;;9.38;3.20;;;;;;;4.46;93.40;96358.19;2072727;28;20197;-61
2022/02/02 01:45:54;;;;;;;11.88;2.05;;;;;;;4.46;93.65;96360.78;2072020;28;20221;-61
2022/02/02 01:46:35;;;;;;;7.15;2.33;;;;;;;4.38;93.91;96347.34;2069192;28;20213;-61
2022/02/02 01:47:47;;;;;;;7.63;3.35;;;;;;;4.40;94.08;96355.06;2072881;28;20687;-61
2022/02/02 01:48:59;;;;;;;12.27;2.90;;;;;;;4.41;93.93;96369.69;2072782;28;20892;-61
2022/02/02 01:50:21;;;;;;;12.32;2.80;;;;;;;4.44;94.04;96360.00;2072556;28;20552;-61
2022/02/02 01:55:45;;;;;;;13.40;3.63;;;;;;;4.22;94.52;96323.09;2072526;28;20201;-60
2022/02/02 01:56:47;;;;;;;7.35;3.03;;;;;;;4.40;94.71;96355.06;2072897;28;20202;-61
2022/02/02 01:58:02;;;;;;;10.32;3.90;;;;;;;4.46;94.65;96353.00;2073007;28;20293;-61
2022/02/02 01:59:18;;;;;;;6.43;3.67;;;;;;;4.45;94.87;96361.72;2071775;28;20592;-60
2022/02/02 02:00:20;;;;;;;11.85;3.40;;;;;;;4.34;94.90;96349.25;2072275;28;20203;-61
2022/02/02 02:01:22;;;;;;;8.63;3.83;;;;;;;4.45;95.04;96355.66;2071824;28;20528;-61
2022/02/02 02:02:28;;;;;;;11.90;4.10;;;;;;;4.46;95.29;96363.38;2072983;28;20201;-61
2022/02/02 02:03:30;;;;;;;13.90;3.88;;;;;;;4.21;95.38;96319.63;2072820;28;20555;-60
2022/02/02 02:04:31;;;;;;;11.95;4.20;;;;;;;4.24;95.49;96332.44;2072398;28;20217;-61
2022/02/02 02:05:32;;;;;;;11.85;4.05;;;;;;;4.26;95.51;96340.16;2072793;28;20586;-61
2022/02/02 02:06:34;;;;;;;12.40;4.35;;;;;;;4.38;95.54;96355.13;2072743;28;20225;-61
2022/02/02 02:07:36;;;;;;;14.40;4.88;;;;;;;4.32;95.93;96356.25;2072566;28;20649;-61
2022/02/02 02:08:40;;;;;;;16.42;3.78;;;;;;;4.33;95.82;96352.75;2072882;28;20202;-61
2022/02/02 02:09:42;;;;;;;8.77;4.10;;;;;;;4.43;95.38;96360.94;2072268;28;20233;-60
2022/02/02 02:10:44;;;;;;;24.65;4.75;;;;;;;4.47;94.70;96367.66;2072818;28;20202;-61
2022/02/02 02:12:06;;;;;;;18.92;4.75;;;;;;;4.51;94.55;96366.59;2072703;28;20201;-61
2022/02/02 02:13:14;;;;;;;13.07;4.03;;;;;;;4.58;94.29;96372.31;2072175;28;20264;-60
2022/02/02 02:14:38;;;;;;;15.00;3.55;;;;;;;4.55;94.25;96370.72;2070963;28;20205;-60
2022/02/02 02:15:41;;;;;;;17.40;5.03;;;;;;;4.63;93.49;96361.72;2072559;28;20707;-61
2022/02/02 02:16:43;;;;;;;14.90;5.13;;;;;;;4.50;93.67;96345.91;2072137;28;20197;-61
2022/02/02 02:17:45;;;;;;;17.23;4.60;;;;;;;4.66;93.51;96371.94;2072476;28;20515;-61
2022/02/02 02:18:46;;;;;;;12.10;3.65;;;;;;;4.68;93.58;96383.09;2072547;28;20194;-61
2022/02/02 02:19:50;;;;;;;16.73;3.47;;;;;;;4.60;94.19;96375.66;2072117;28;20221;-61
2022/02/02 02:20:52;;;;;;;10.52;4.00;;;;;;;4.64;94.34;96387.56;2072750;28;20201;-61
2022/02/02 02:21:54;;;;;;;14.30;4.15;;;;;;;4.61;94.53;96376.53;2072508;28;20201;-60
2022/02/02 02:22:56;;;;;;;16.48;5.70;;;;;;;4.61;94.79;96379.97;2072703;28;20194;-60
2022/02/02 02:23:59;;;;;;;18.50;4.15;;;;;;;4.61;95.01;96377.38;2072638;28;20897;-60
2022/02/02 02:25:01;;;;;;;15.80;4.32;;;;;;;4.55;95.21;96382.84;2072004;28;20279;-60
2022/02/02 02:26:05;;;;;;;23.05;5.07;;;;;;;4.59;95.08;96388.72;2070946;28;20194;-60
2022/02/02 02:27:08;;;;;;;15.88;6.00;;;;;;;4.64;94.95;96378.97;2072589;28;20205;-60
2022/02/02 02:30:56;;;;;;;14.88;5.20;;;;;;;4.62;94.63;96379.03;2075087;28;20196;-60
2022/02/02 02:32:16;;;;;;;16.65;4.70;;;;;;;4.62;94.40;96381.63;2074735;28;20202;-60
2022/02/02 02:34:51;;;;;;;13.70;4.30;;;;;;;4.59;94.49;96386.97;2071043;28;20229;-60
2022/02/02 02:36:25;;;;;;;17.20;4.50;;;;;;;4.58;94.53;96385.28;2071396;28;20617;-60
2022/02/02 02:37:37;;;;;;;11.60;4.05;;;;;;;4.64;94.17;96389.34;2072025;28;20599;-60
2022/02/02 02:56:47;;;;;;;13.43;3.25;;;;;;;4.53;92.56;96387.28;2072349;28;20248;-60
2022/02/02 03:00:22;;;;;;;15.80;3.20;;;;;;;4.58;91.83;96392.22;2070412;28;20226;-60
2022/02/02 03:31:10;;;;;;;11.27;2.28;;;;;;;4.50;90.15;96390.84;2072163;28;20201;-60
2022/02/02 03:53:32;;;;;;;14.98;2.58;;;;;;;4.50;90.99;96423.72;2071190;28;20694;-60
2022/02/02 04:09:17;;;;;;;16.73;3.53;;;;;;;4.48;90.60;96417.75;2073150;28;20610;-60
2022/02/02 04:10:19;;;;;;;17.33;2.75;;;;;;;4.49;90.90;96422.06;2073583;28;20259;-60
2022/02/02 04:12:43;;;;;;;10.57;2.90;;;;;;;4.52;91.09;96435.69;2073467;28;20711;-60
2022/02/02 04:37:41;;;;;;;19.65;3.10;;;;;;;4.32;90.88;96447.00;2073503;28;20541;-60
2022/02/02 04:51:28;;;;;;;12.25;2.53;;;;;;;4.24;91.20;96445.69;2071067;28;20201;-60
2022/02/02 04:52:35;;;;;;;12.55;2.35;;;;;;;4.03;91.46;96443.16;2073340;28;20817;-59
2022/02/02 04:55:00;;;;;;;17.67;2.83;;;;;;;4.06;92.00;96460.31;2072640;28;20221;-59
2022/02/02 05:05:02;;;;;;;18.75;3.20;;;;;;;3.99;92.63;96459.75;2072525;28;20756;-58
2022/02/02 05:07:20;;;;;;;16.38;3.13;;;;;;;3.97;92.78;96459.81;2073086;28;20197;-59
2022/02/02 05:13:59;;;;;;;13.10;2.80;;;;;;;3.94;92.45;96448.75;2073161;28;20276;-59
2022/02/02 05:15:59;;;;;;;17.65;3.15;;;;;;;3.83;92.23;96433.69;2071914;28;20711;-58
2022/02/02 05:19:57;;;;;;;11.73;2.60;;;;;;;3.89;91.86;96450.72;2070679;28;20221;-59
2022/02/02 05:21:19;;;;;;;9.93;2.95;;;;;;;3.85;92.16;96462.94;2070477;28;20206;-59
2022/02/02 05:23:34;;;;;;;11.02;2.65;;;;;;;3.88;92.14;96475.78;2073153;28;20589;-58
2022/02/02 05:26:30;;;;;;;20.48;2.60;;;;;;;3.93;91.18;96480.75;2071666;28;20925;-58
2022/02/02 05:42:56;;;;;;;17.20;2.22;;;;;;;4.32;87.78;96485.06;2072907;28;20679;-58
2022/02/02 05:51:53;;;;;;;14.02;2.35;;;;;;;4.47;86.41;96502.50;2072408;28;20637;-59
2022/02/02 05:52:56;;;;;;;21.88;4.30;;;;;;;4.43;85.82;96494.94;2072054;28;20197;-59
2022/02/02 05:53:57;;;;;;;18.33;3.20;;;;;;;4.52;86.47;96502.28;2072865;28;20198;-59
2022/02/02 05:54:59;;;;;;;14.90;3.00;;;;;;;4.48;86.57;96504.19;2072418;28;20214;-59
2022/02/02 05:56:02;;;;;;;10.07;2.40;;;;;;;4.49;86.62;96508.47;2072695;28;20198;-59
2022/02/02 05:57:07;;;;;;;21.08;4.28;;;;;;;4.49;86.66;96508.47;2072951;28;20205;-59
2022/02/02 05:58:09;;;;;;;17.75;4.03;;;;;;;4.47;86.57;96512.03;2070973;28;20201;-59
2022/02/02 05:59:11;;;;;;;17.63;2.95;;;;;;;4.50;86.70;96507.53;2072444;28;20194;-58
2022/02/02 06:00:14;;;;;;;20.55;3.75;;;;;;;4.43;86.83;96507.88;2071489;28;20232;-59
2022/02/02 06:01:16;;;;;;;8.65;2.40;;;;;;;4.45;87.28;96514.72;2072816;28;20696;-59
2022/02/02 06:02:24;;;;;;;14.23;3.83;;;;;;;4.38;87.42;96505.53;2072829;28;20225;-58
2022/02/02 06:03:54;;;;;;;26.05;3.17;;;;;;;4.44;87.56;96499.22;2072188;28;20202;-59
2022/02/02 06:05:03;;;;;;;16.35;3.70;;;;;;;4.46;87.39;96507.75;2072283;28;20559;-59
2022/02/02 06:06:06;;;;;;;10.95;3.28;;;;;;;4.43;87.72;96503.56;2072743;28;20197;-59
2022/02/02 06:07:08;;;;;;;31.73;4.05;;;;;;;4.41;87.76;96505.41;2072851;28;20194;-59
2022/02/02 06:08:14;;;;;;;15.98;3.10;;;;;;;4.44;87.67;96496.63;2072278;28;20250;-59
2022/02/02 06:09:17;;;;;;;17.77;2.67;;;;;;;4.34;87.25;96486.66;2071445;28;20206;-59
2022/02/02 06:10:20;;;;;;;20.65;3.88;;;;;;;4.39;87.89;96506.34;2071935;28;20625;-59
2022/02/02 06:11:23;;;;;;;15.10;2.90;;;;;;;4.37;88.54;96514.19;2072570;28;20194;-58
2022/02/02 06:12:26;;;;;;;15.13;3.00;;;;;;;4.27;88.43;96493.06;2072495;28;20189;-59
2022/02/02 06:13:50;;;;;;;14.48;3.10;;;;;;;4.34;88.13;96489.25;2072376;28;20236;-59
2022/02/02 06:14:53;;;;;;;14.65;2.75;;;;;;;4.39;86.99;96499.44;2070923;28;20220;-59
2022/02/02 06:15:57;;;;;;;14.75;3.53;;;;;;;4.45;86.92;96498.28;2071376;28;20198;-59
2022/02/02 06:17:03;;;;;;;17.42;3.55;;;;;;;4.40;87.35;96498.50;2072057;28;20216;-59
2022/02/02 06:18:10;;;;;;;20.50;3.22;;;;;;;4.45;87.29;96509.53;2072534;28;20572;-58
2022/02/02 06:19:12;;;;;;;16.45;3.70;;;;;;;4.35;87.41;96505.66;2072107;28;20720;-58
2022/02/02 06:20:13;;;;;;;37.85;3.17;;;;;;;4.15;87.48;96478.88;2072487;28;20217;-58
2022/02/02 06:21:21;;;;;;;18.38;3.50;;;;;;;4.38;87.73;96525.44;2072496;28;20745;-58
2022/02/02 06:22:31;;;;;;;10.50;3.42;;;;;;;4.40;87.74;96524.44;2071762;28;20224;-58
2022/02/02 06:23:53;;;;;;;15.15;3.17;;;;;;;4.36;88.02;96533.28;2072319;28;20202;-58
2022/02/02 06:25:13;;;;;;;16.45;2.75;;;;;;;4.38;88.06;96528.84;2071805;28;20239;-58
2022/02/02 06:26:16;;;;;;;10.88;2.45;;;;;;;4.33;88.45;96526.47;2072027;28;20757;-59
2022/02/02 06:27:24;;;;;;;25.35;3.30;;;;;;;4.36;88.60;96526.31;2072573;28;20255;-59
2022/02/02 06:28:33;;;;;;;19.13;3.60;;;;;;;4.41;88.54;96527.88;2072023;28;20653;-59
2022/02/02 06:29:40;;;;;;;15.00;2.85;;;;;;;4.34;89.05;96522.97;2071326;28;20226;-58
2022/02/02 06:30:44;;;;;;;18.42;3.03;;;;;;;4.38;88.87;96522.84;2071748;28;20197;-58
2022/02/02 06:31:46;;;;;;;11.80;3.78;;;;;;;4.26;88.95;96506.91;2072559;28;20197;-58
2022/02/02 06:32:50;;;;;;;30.80;4.00;;;;;;;4.34;89.06;96522.13;2072624;28;20197;-58
2022/02/02 06:33:59;;;;;;;15.68;3.47;;;;;;;4.32;89.19;96521.34;2072488;28;20276;-59
2022/02/02 06:35:06;;;;;;;27.60;3.40;;;;;;;4.18;88.99;96505.59;2072040;28;20217;-58
2022/02/02 06:36:10;;;;;;;16.05;3.67;;;;;;;4.38;88.84;96531.44;2072669;28;20618;-58
2022/02/02 06:37:13;;;;;;;18.55;3.47;;;;;;;4.30;89.09;96526.59;2071531;28;20304;-59
2022/02/02 06:38:16;;;;;;;14.45;2.92;;;;;;;4.34;88.72;96530.75;2072368;28;20540;-59
2022/02/02 06:39:17;;;;;;;14.38;2.90;;;;;;;4.34;88.54;96529.91;2072117;28;20745;-58
2022/02/02 06:40:20;;;;;;;19.90;3.22;;;;;;;4.33;88.83;96533.41;2070714;28;20198;-59
2022/02/02 06:41:26;;;;;;;9.60;2.58;;;;;;;4.32;89.02;96537.75;2072692;28;20202;-59
2022/02/02 06:42:28;;;;;;;20.23;3.58;;;;;;;4.30;89.24;96541.31;2072570;28;20201;-59
2022/02/02 06:43:29;;;;;;;16.02;3.40;;;;;;;4.27;89.59;96544.03;2072460;28;20197;-59
2022/02/02 06:44:32;;;;;;;14.07;2.78;;;;;;;4.33;89.51;96556.72;2071893;28;20222;-58
2022/02/02 06:45:34;;;;;;;18.27;3.65;;;;;;;4.30;89.32;96547.34;2072292;28;20197;-59
2022/02/02 06:46:38;;;;;;;21.55;3.60;;;;;;;4.31;89.25;96545.59;2072526;28;20204;-58
2022/02/02 06:47:40;;;;;;;18.52;3.20;;;;;;;4.34;89.25;96542.88;2072479;28;20357;-59
2022/02/02 06:48:42;;;;;;;13.95;2.88;;;;;;;4.35;89.13;96536.75;2072087;28;20263;-59
2022/02/02 06:49:47;;;;;;;24.20;3.55;;;;;;;4.40;88.88;96539.16;2071630;28;20221;-59
2022/02/02 06:50:58;;;;;;;10.07;3.05;;;;;;;4.24;88.66;96503.56;2072468;28;20197;-59
2022/02/02 06:52:10;;;;;;;15.68;3.45;;;;;;;4.39;88.43;96538.34;2071427;28;20201;-58
2022/02/02 06:54:49;;;;;;;18.52;3.28;;;;;;;4.33;89.12;96547.22;2071137;28;20217;-59
2022/02/02 06:56:40;;;;;;;13.95;2.80;;;;;;;4.29;89.42;96548.28;2072178;28;20289;-58
2022/02/02 06:58:04;;;;;;;24.60;3.88;;;;;;;4.25;89.71;96566.59;2071845;28;20236;-59
2022/02/02 06:59:20;;;;;;;22.75;4.18;;;;;;;4.30;89.75;96569.84;2070920;28;20642;-59
2022/02/02 07:00:34;;;;;;;26.00;6.13;;;;;;;4.31;89.72;96581.88;2072498;28;20212;-59
2022/02/02 07:01:53;;;;;;;28.75;6.82;;;;;;;4.28;89.97;96572.50;2072106;28;20235;-60
2022/02/02 07:03:20;;;;;;;17.02;3.40;;;;;;;4.28;90.38;96577.69;2071666;28;20581;-59
2022/02/02 07:04:44;;;;;;;13.98;3.33;;;;;;;4.24;90.83;96590.88;2071896;28;20534;-59
2022/02/02 07:06:07;;;;;;;23.38;3.30;;;;;;;4.24;91.08;96590.88;2072543;28;20864;-59
2022/02/02 07:08:56;;;;;;;22.73;3.95;;;;;;;4.31;91.14;96587.06;2062944;28;20206;-59
2022/02/02 07:12:26;;;;;;;19.00;3.22;;;;;;;4.31;91.06;96582.75;2070134;28;20209;-59
2022/02/02 07:13:44;;;;;;;18.10;3.90;;;;;;;4.32;91.21;96584.41;2072033;28;20201;-59
2022/02/02 07:16:33;;;;;;;19.85;3.67;;;;;;;4.39;90.56;96585.00;2074333;28;20623;-58
2022/02/02 07:17:53;;;;;;;15.75;3.55;;;;;;;4.38;90.78;96591.09;2071603;28;20208;-59
2022/02/02 07:25:28;;;;;;;19.92;5.32;;;;;;;4.50;89.75;96600.06;2070809;28;20951;-59
2022/02/02 07:30:09;;;;;;;21.73;3.47;;;;;;;4.48;90.10;96618.28;2070129;28;20286;-59
2022/02/02 07:31:32;;;;;;;22.90;3.13;;;;;;;4.50;90.05;96613.03;2072176;28;20227;-59
2022/02/02 07:32:45;;;;;;;15.30;3.10;;;;;;;4.45;89.74;96608.06;2071884;28;20761;-59
2022/02/02 07:33:52;;;;;;;20.17;3.25;;;;;;;4.52;89.43;96614.66;2071774;28;20789;-59
2022/02/02 07:36:32;;;;;;;24.38;3.80;;;;;;;4.70;88.62;96622.53;2071136;28;20205;-59
2022/02/02 07:37:38;;;;;;;23.75;5.55;;;;;;;4.73;88.57;96618.03;2072113;28;20201;-59
2022/02/02 07:39:01;;;;;;;23.25;4.55;;;;;;;4.72;88.79;96608.59;2071090;28;20229;-59
2022/02/02 07:40:06;;;;;;;16.65;3.85;;;;;;;4.72;88.34;96602.53;2070070;28;20220;-59
2022/02/02 07:41:13;;;;;;;23.20;4.20;;;;;;;4.74;88.36;96603.31;2070022;28;20550;-59
2022/02/02 07:42:19;;;;;;;27.30;4.00;;;;;;;4.79;88.22;96608.31;2072006;28;20197;-59
2022/02/02 07:43:32;;;;;;;25.42;4.25;;;;;;;4.33;88.12;96528.22;2071921;28;20271;-59
2022/02/02 07:44:36;;;;;;;21.08;3.55;;;;;;;4.70;88.45;96588.78;2070897;28;20528;-59
2022/02/02 07:45:38;;;;;;;13.50;3.00;;;;;;;4.73;88.39;96586.91;2071985;28;20201;-59
2022/02/02 07:46:46;;;;;;;18.55;3.80;;;;;;;4.68;88.31;96586.25;2071897;28;20295;-59
2022/02/02 07:48:14;;;;;;;12.77;3.33;;;;;;;4.69;88.40;96589.72;2072142;28;20198;-60
2022/02/02 07:49:22;;;;;;;19.33;4.95;;;;;;;4.67;88.32;96588.94;2069646;28;20217;-59
2022/02/02 07:50:25;;;;;;;10.73;3.10;;;;;;;4.65;88.51;96591.59;2071539;28;20522;-60
2022/02/02 07:51:27;;;;;;;12.38;3.45;;;;;;;4.64;88.31;96602.06;2070736;28;20633;-60
2022/02/02 07:52:30;;;;;;;23.05;4.47;;;;;;;4.65;88.06;96594.22;2072210;28;20197;-60
2022/02/02 07:53:49;;;;;;;25.00;4.63;;;;;;;4.63;88.23;96592.59;2072164;28;20206;-59
2022/02/02 07:55:07;;;;;;;15.90;3.63;;;;;;;4.62;88.67;96602.13;2071305;28;20225;-60
2022/02/02 07:56:16;;;;;;;18.73;3.60;;;;;;;4.36;88.72;96549.66;2072232;28;20197;-60
2022/02/02 07:57:25;;;;;;;21.40;3.85;;;;;;;4.62;88.57;96596.09;2070024;28;20229;-60
2022/02/02 07:58:27;;;;;;;14.43;4.00;;;;;;;4.61;88.82;96597.84;2071580;28;20202;-60
2022/02/02 07:59:52;;;;;;;15.43;3.45;;;;;;;4.59;88.64;96602.28;2070394;28;20218;-60
2022/02/02 08:00:55;;;;;;;18.70;3.17;;;;;;;4.64;88.82;96609.84;2072006;28;20673;-60
2022/02/02 08:01:58;;;;;;;9.88;3.65;;;;;;;4.65;88.66;96616.72;2072238;28;20205;-60
2022/02/02 08:03:11;;;;;;;15.35;4.35;;;;;;;4.64;88.66;96613.25;2072046;28;20887;-60
2022/02/02 08:04:14;;;;;;;20.23;5.03;;;;;;;4.60;89.10;96614.31;2069757;28;20198;-61
2022/02/02 08:05:17;;;;;;;16.55;3.85;;;;;;;4.58;89.44;96618.72;2072141;28;20225;-60
2022/02/02 08:06:22;;;;;;;24.52;3.63;;;;;;;4.61;89.97;96617.78;2072045;28;20210;-60
2022/02/02 08:07:29;;;;;;;18.15;4.20;;;;;;;4.62;90.14;96624.63;2071890;28;20530;-60
2022/02/02 08:08:34;;;;;;;18.02;3.88;;;;;;;4.63;90.70;96634.94;2071830;28;20194;-60
2022/02/02 08:09:42;;;;;;;14.90;3.20;;;;;;;4.56;90.51;96628.34;2071590;28;20668;-59
2022/02/02 08:10:47;;;;;;;24.25;3.28;;;;;;;4.59;90.54;96632.53;2072017;28;20875;-60
2022/02/02 08:11:51;;;;;;;21.38;4.18;;;;;;;4.61;90.20;96636.75;2071613;28;20201;-60
2022/02/02 08:13:36;;;;;;;13.88;3.88;;;;;;;4.59;90.62;96633.41;2071526;28;20651;-60
2022/02/02 08:14:27;;;;;;;12.23;3.55;;;;;;;4.54;90.92;96636.16;2071319;28;20217;-60
2022/02/02 08:15:32;;;;;;;8.02;3.17;;;;;;;4.60;90.19;96645.44;2072007;28;20202;-60
2022/02/02 08:16:37;;;;;;;23.02;3.55;;;;;;;4.54;90.41;96635.34;2070951;28;20201;-59
2022/02/02 08:17:39;;;;;;;17.00;3.50;;;;;;;4.57;90.38;96645.59;2071288;28;20205;-60
2022/02/02 08:18:44;;;;;;;24.75;3.90;;;;;;;4.47;89.93;96611.44;2071850;28;20201;-60
2022/02/02 08:19:46;;;;;;;18.52;4.00;;;;;;;4.65;89.71;96634.88;2071087;28;20221;-60
2022/02/02 08:20:49;;;;;;;23.95;3.40;;;;;;;4.69;89.73;96628.63;2070968;28;20285;-60
2022/02/02 08:21:50;;;;;;;28.95;4.10;;;;;;;4.72;88.62;96636.28;2072013;28;20198;-60
2022/02/02 08:22:52;;;;;;;20.80;3.10;;;;;;;4.68;88.83;96626.94;2071867;28;20194;-59
2022/02/02 08:23:54;;;;;;;15.23;3.13;;;;;;;4.75;89.06;96641.34;2072027;28;20210;-60
2022/02/02 08:24:56;;;;;;;23.73;4.00;;;;;;;4.79;88.22;96639.44;2071424;28;20226;-60
2022/02/02 08:26:00;;;;;;;21.00;4.45;;;;;;;4.85;87.88;96640.00;2071655;28;20213;-60
2022/02/02 08:27:02;;;;;;;23.40;3.28;;;;;;;4.82;87.78;96640.16;2074908;28;20194;-60
2022/02/02 08:28:05;;;;;;;23.58;3.70;;;;;;;4.88;87.70;96655.44;2074239;28;20696;-60
2022/02/02 08:29:10;;;;;;;12.40;3.55;;;;;;;4.84;87.65;96651.31;2071517;28;20243;-60
2022/02/02 08:30:15;;;;;;;21.02;3.38;;;;;;;4.83;87.24;96657.41;2071440;28;20209;-59
2022/02/02 08:31:17;;;;;;;19.85;4.20;;;;;;;4.90;87.30;96673.53;2071109;28;20232;-60
2022/02/02 08:32:19;;;;;;;29.85;4.00;;;;;;;4.85;88.02;96665.13;2072261;28;20555;-60
2022/02/02 08:33:27;;;;;;;24.98;3.58;;;;;;;4.69;85.48;96631.22;2071552;28;20220;-60
2022/02/02 08:34:29;;;;;;;28.42;4.10;;;;;;;4.94;86.24;96669.91;2071284;28;20586;-60
2022/02/02 08:35:40;;;;;;;12.73;2.90;;;;;;;4.93;86.18;96674.22;2072094;28;20206;-59
2022/02/02 08:36:46;;;;;;;15.57;3.60;;;;;;;4.71;86.51;96643.22;2070572;28;20607;-61
2022/02/02 08:37:56;;;;;;;25.15;3.85;;;;;;;4.67;86.31;96630.47;2072115;28;20201;-59
2022/02/02 08:41:06;;;;;;;18.70;4.00;;;;;;;4.83;87.10;96672.13;2071141;28;20229;-60
2022/02/02 08:41:51;;;;;;;19.25;3.58;;;;;;;4.79;88.10;96666.22;2072613;28;20700;-60
2022/02/02 08:42:53;;;;;;;15.98;4.35;;;;;;;4.70;88.37;96667.47;2073573;28;20194;-60
2022/02/02 08:45:17;;;;;;;19.40;3.90;;;;;;;4.57;89.43;96648.19;2072158;28;20217;-60
2022/02/02 08:46:33;;;;;;;24.48;5.10;;;;;;;4.80;89.75;96672.25;2073577;28;20205;-60
2022/02/02 08:47:34;;;;;;;27.05;3.15;;;;;;;4.73;90.05;96671.69;2076949;28;20739;-60
2022/02/02 08:48:39;;;;;;;15.07;3.20;;;;;;;4.70;90.43;96666.63;2076801;28;20224;-60
2022/02/02 08:49:48;;;;;;;17.55;3.60;;;;;;;4.59;90.86;96628.22;2072845;28;20271;-60
2022/02/02 08:50:55;;;;;;;17.83;3.60;;;;;;;4.77;90.02;96660.28;2072355;28;20218;-60
2022/02/02 08:51:56;;;;;;;19.58;4.22;;;;;;;4.74;89.80;96652.59;2073970;28;20201;-60
2022/02/02 08:53:08;;;;;;;20.55;3.63;;;;;;;4.80;89.05;96667.06;2073866;28;20198;-60
2022/02/02 08:54:25;;;;;;;17.33;3.50;;;;;;;4.77;89.25;96678.44;2073459;28;20660;-60
2022/02/02 08:55:55;;;;;;;27.23;4.65;;;;;;;4.81;89.53;96682.56;2073814;28;20208;-60
2022/02/02 08:58:21;;;;;;;21.17;4.68;;;;;;;4.87;89.36;96686.66;2072712;28;20647;-60
2022/02/02 09:00:25;;;;;;;21.33;4.28;;;;;;;4.81;88.75;96674.78;2073539;28;20221;-60
2022/02/02 09:01:30;;;;;;;24.38;3.95;;;;;;;4.84;89.44;96674.66;2073655;28;20264;-60
2022/02/02 09:02:34;;;;;;;17.27;3.80;;;;;;;4.83;88.95;96693.72;2072247;28;20206;-60
2022/02/02 09:06:36;;;;;;;15.63;3.50;;;;;;;4.86;88.06;96684.94;2072327;28;20202;-60
2022/02/02 09:07:38;;;;;;;20.83;4.05;;;;;;;4.86;88.62;96692.72;2072997;28;20234;-60